KRTN/RTN METAR and TAF weather

Enter ICAO airport designator
Station Type Date Time Source
KRTN METAR 2020/11/28 19:53 UTC NOAA

KRTN 281953Z AUTO 23008KT 10SM FEW055 04/M04 A3007 RMK AO2 SLP181 T00391039


Station Type Date Time Source
KRTN Decoded METAR 2020/11/28 19:53 UTC NOAA

Raton, Raton Municipal \ Crews Field Airport, NM, United States (KRTN) 36-44-31N 104-39-28W 1939M
Nov 28, 2020 - 02:53 PM EST / 2020.11.28 1953 UTC
Wind: from the SW (230 degrees) at 9 MPH (8 KT):0
Visibility: 10 mile(s):0
Sky conditions: mostly clear
Temperature: 39.0 F (3.9 C)
Dew Point: 25.0 F (-3.9 C)
Relative Humidity: 56%
Pressure (altimeter): 30.07 in. Hg (1018 hPa)
ob: KRTN 281953Z AUTO 23008KT 10SM FEW055 04/M04 A3007 RMK AO2 SLP181 T00391039
cycle: 20

Station Type Date Time Source
KRTN TAF UTC NOAA

Error!

Example: see airport list